createdAt,value
2022-12-16T00:02:08.137Z,97.32
2022-12-16T00:07:10.392Z,102.05
2022-12-16T00:12:12.610Z,94.97
2022-12-16T00:17:14.817Z,93.97
2022-12-16T00:22:17.108Z,78.68
2022-12-16T00:27:19.337Z,62.42
2022-12-16T00:32:21.582Z,63.33
2022-12-16T00:37:23.952Z,65.75
2022-12-16T00:42:26.215Z,54.05
2022-12-16T00:47:28.408Z,51.17
2022-12-16T00:52:30.934Z,60.08
2022-12-16T01:03:21.975Z,54.95
2022-12-16T01:08:24.424Z,56.13
2022-12-16T01:13:26.951Z,60.65
2022-12-16T01:18:29.191Z,129.20
2022-12-16T01:23:31.679Z,97.15
2022-12-16T01:28:33.896Z,92.13
2022-12-16T01:33:36.354Z,99.68
2022-12-16T01:38:39.046Z,98.25
2022-12-16T01:43:42.190Z,113.40
2022-12-16T01:48:59.376Z,102.85
2022-12-16T01:54:17.626Z,94.43
2022-12-16T01:59:20.740Z,100.22
2022-12-16T02:04:24.195Z,105.95
2022-12-16T02:09:26.759Z,122.82
2022-12-16T02:14:31.785Z,142.88
2022-12-16T02:19:45.863Z,130.45
2022-12-16T02:24:56.639Z,134.75
2022-12-16T02:30:17.191Z,118.40
2022-12-16T02:35:25.850Z,82.70
2022-12-16T02:40:37.036Z,79.20
2022-12-16T02:45:40.631Z,63.90
2022-12-16T02:50:51.847Z,53.63
2022-12-16T02:56:01.691Z,57.20
2022-12-16T03:01:24.193Z,59.97
2022-12-16T03:06:27.794Z,54.65
2022-12-16T03:11:31.737Z,50.58
2022-12-16T03:16:37.688Z,52.65
2022-12-16T03:22:10.034Z,55.83
2022-12-16T03:27:27.556Z,62.38
2022-12-16T03:32:36.600Z,68.25
2022-12-16T03:37:40.447Z,75.75
2022-12-16T03:42:44.245Z,77.85
2022-12-16T03:47:51.810Z,94.65
2022-12-16T03:52:54.301Z,98.03
2022-12-16T03:57:57.617Z,82.78
2022-12-16T04:03:00.144Z,75.10
2022-12-16T04:08:02.564Z,86.53
2022-12-16T04:13:23.252Z,100.32
2022-12-16T04:18:44.477Z,79.38
2022-12-16T04:24:11.675Z,86.35
2022-12-16T04:29:14.195Z,69.13
2022-12-16T04:34:29.668Z,127.22
2022-12-16T04:39:50.395Z,83.72
2022-12-16T04:45:11.266Z,64.18
2022-12-16T04:50:32.439Z,80.10
2022-12-16T04:55:53.338Z,53.15
2022-12-16T05:01:14.149Z,47.05
2022-12-16T05:06:35.700Z,50.35
2022-12-16T05:11:56.357Z,37.33
2022-12-16T05:17:17.104Z,77.43
2022-12-16T05:22:37.878Z,49.75
2022-12-16T05:27:58.681Z,28.65
2022-12-16T05:33:19.726Z,33.78
2022-12-16T05:38:40.371Z,29.50
2022-12-16T05:44:01.311Z,31.90
2022-12-16T05:49:22.028Z,33.75
2022-12-16T05:54:43.340Z,30.67
2022-12-16T06:00:03.950Z,41.65
2022-12-16T06:05:25.133Z,21.45
2022-12-16T06:10:46.164Z,21.88
2022-12-16T06:16:09.123Z,23.02
2022-12-16T06:21:30.271Z,25.00
2022-12-16T06:26:50.782Z,28.58
2022-12-16T06:37:33.624Z,28.55
2022-12-16T06:42:57.824Z,26.40
2022-12-16T06:48:18.939Z,39.92
2022-12-16T06:53:39.430Z,35.30
2022-12-16T07:04:20.890Z,37.47
2022-12-16T07:15:01.788Z,33.92
2022-12-16T07:20:23.219Z,32.80
2022-12-16T07:25:43.982Z,36.00
2022-12-16T07:31:04.830Z,31.42
2022-12-16T07:36:26.200Z,34.78
2022-12-16T07:41:50.204Z,29.23
2022-12-16T07:47:11.041Z,27.73
2022-12-16T07:52:31.772Z,31.65
2022-12-16T07:57:52.527Z,28.98
2022-12-16T08:03:14.147Z,27.08
2022-12-16T08:08:34.909Z,26.10
2022-12-16T08:13:55.801Z,40.00
2022-12-16T08:19:16.717Z,42.25
2022-12-16T08:24:38.139Z,37.70
2022-12-16T08:29:58.644Z,37.42
2022-12-16T08:35:20.097Z,40.00
2022-12-16T08:40:40.798Z,43.17
2022-12-16T08:46:02.261Z,41.60
2022-12-16T08:51:24.319Z,36.83
2022-12-16T08:56:44.878Z,36.08
2022-12-16T09:02:06.260Z,37.28
2022-12-16T09:07:27.135Z,37.95
2022-12-16T09:12:48.082Z,44.38
2022-12-16T09:18:15.709Z,54.35
2022-12-16T09:23:36.863Z,52.78
2022-12-16T09:28:57.678Z,53.78
2022-12-16T09:34:18.565Z,59.13
2022-12-16T09:39:59.083Z,58.28
2022-12-16T09:45:51.872Z,55.38
2022-12-16T09:51:17.157Z,55.30
2022-12-16T09:56:45.591Z,51.67
2022-12-16T10:02:07.172Z,47.05
2022-12-16T10:07:35.654Z,53.33
2022-12-16T10:13:02.221Z,69.18
2022-12-16T10:18:55.598Z,63.17
2022-12-16T10:24:43.424Z,53.17
2022-12-16T10:30:06.004Z,55.60
2022-12-16T10:35:38.784Z,53.42
2022-12-16T10:40:59.474Z,51.33
2022-12-16T10:46:27.457Z,47.60
2022-12-16T10:51:49.415Z,43.25
2022-12-16T10:57:20.238Z,40.88
2022-12-16T11:02:44.205Z,48.17
2022-12-16T11:08:05.055Z,47.45
2022-12-16T11:13:40.382Z,45.40
2022-12-16T11:19:09.381Z,56.13
2022-12-16T11:24:37.722Z,81.22
2022-12-16T11:30:15.212Z,92.43
2022-12-16T11:35:39.165Z,72.07
2022-12-16T11:41:01.230Z,59.05
2022-12-16T11:46:29.361Z,59.50
2022-12-16T11:51:59.755Z,54.55
2022-12-16T11:57:44.997Z,41.80
2022-12-16T12:03:15.591Z,32.88
2022-12-16T12:08:58.834Z,31.08
2022-12-16T12:14:19.712Z,34.80
2022-12-16T12:20:06.306Z,38.97
2022-12-16T12:25:52.277Z,29.30
2022-12-16T12:31:31.226Z,32.78
2022-12-16T12:37:04.789Z,26.05
2022-12-16T12:42:48.896Z,32.97
2022-12-16T12:48:56.011Z,31.15
2022-12-16T12:55:13.760Z,29.35
2022-12-16T13:00:40.078Z,42.30
2022-12-16T13:06:01.852Z,36.20
2022-12-16T13:11:35.410Z,48.70
2022-12-16T13:17:05.376Z,32.63
2022-12-16T13:22:52.639Z,27.83
2022-12-16T13:28:16.161Z,37.95
2022-12-16T13:33:48.645Z,25.40
2022-12-16T13:39:12.091Z,24.73
2022-12-16T13:45:02.011Z,25.05
2022-12-16T13:51:09.102Z,27.90
2022-12-16T13:56:35.134Z,22.75
2022-12-16T14:02:16.876Z,36.75
2022-12-16T14:07:41.486Z,32.72
2022-12-16T14:13:26.358Z,30.70
2022-12-16T14:19:00.257Z,25.77
2022-12-16T14:24:33.269Z,30.25
2022-12-16T14:29:54.179Z,28.95
2022-12-16T14:35:20.870Z,32.25
2022-12-16T14:40:48.727Z,26.58
2022-12-16T14:46:09.976Z,30.30
2022-12-16T14:51:36.393Z,35.85
2022-12-16T14:56:57.079Z,34.15
2022-12-16T15:02:30.688Z,40.30
2022-12-16T15:07:56.177Z,44.17
2022-12-16T15:13:17.457Z,45.00
2022-12-16T15:18:45.151Z,47.92
2022-12-16T15:24:06.305Z,44.65
2022-12-16T15:29:59.079Z,49.92
2022-12-16T15:35:19.963Z,46.88
2022-12-16T15:40:46.703Z,49.00
2022-12-16T15:46:09.242Z,54.63
2022-12-16T15:52:06.700Z,54.97
2022-12-16T15:57:51.906Z,59.10
2022-12-16T16:03:12.882Z,61.70
2022-12-16T16:08:33.561Z,66.63
2022-12-16T16:13:55.898Z,62.70
2022-12-16T16:19:20.353Z,65.25
2022-12-16T16:24:40.904Z,67.50
2022-12-16T16:30:01.981Z,60.33
2022-12-16T16:35:22.995Z,47.92
2022-12-16T16:41:01.109Z,42.50
2022-12-16T16:46:34.538Z,44.08
2022-12-16T16:51:55.650Z,51.78
2022-12-16T16:57:19.019Z,58.75
2022-12-16T17:02:42.942Z,51.08
2022-12-16T17:08:03.632Z,49.25
2022-12-16T17:13:24.193Z,55.47
2022-12-16T17:18:49.021Z,53.85
2022-12-16T17:24:13.195Z,58.17
2022-12-16T17:29:51.549Z,59.35
2022-12-16T17:35:12.961Z,58.13
2022-12-16T17:40:34.286Z,61.65
2022-12-16T17:45:55.309Z,69.05
2022-12-16T17:51:16.151Z,83.22
2022-12-16T17:56:37.101Z,75.25
2022-12-16T18:01:57.975Z,77.43
2022-12-16T18:07:18.969Z,79.40
2022-12-16T18:12:40.706Z,72.38
2022-12-16T18:18:01.585Z,105.13
2022-12-16T18:23:22.293Z,66.57
2022-12-16T18:28:43.454Z,80.32
2022-12-16T18:34:06.338Z,90.38
2022-12-16T18:39:27.758Z,84.63
2022-12-16T18:44:48.843Z,90.63
2022-12-16T18:50:09.915Z,72.15
2022-12-16T18:55:31.102Z,69.78
2022-12-16T19:00:52.630Z,75.38
2022-12-16T19:06:14.352Z,81.80
2022-12-16T19:11:35.213Z,82.68
2022-12-16T19:16:55.904Z,82.50
2022-12-16T19:22:16.779Z,73.80
2022-12-16T19:27:37.749Z,64.35
2022-12-16T19:32:59.839Z,59.00
2022-12-16T19:38:20.769Z,70.22
2022-12-16T19:43:41.660Z,77.72
2022-12-16T19:49:02.303Z,73.57
2022-12-16T19:54:23.253Z,71.13
2022-12-16T19:59:44.259Z,85.25
2022-12-16T20:05:04.879Z,65.57
2022-12-16T20:10:26.156Z,70.10
2022-12-16T20:15:46.934Z,56.90
2022-12-16T20:21:07.681Z,49.88
2022-12-16T20:26:28.578Z,51.72
2022-12-16T20:31:50.215Z,41.58
2022-12-16T20:37:11.239Z,52.10
2022-12-16T20:42:31.814Z,55.97
2022-12-16T20:47:52.732Z,41.45
2022-12-16T20:53:17.343Z,42.78
2022-12-16T20:58:39.990Z,46.42
2022-12-16T21:04:00.775Z,51.35
2022-12-16T21:09:21.756Z,40.30
2022-12-16T21:14:42.961Z,35.05
2022-12-16T21:20:03.785Z,42.67
2022-12-16T21:25:25.095Z,52.70
2022-12-16T21:30:46.021Z,41.97
2022-12-16T21:36:13.611Z,40.45
2022-12-16T21:41:34.461Z,39.80
2022-12-16T21:46:55.283Z,39.40
2022-12-16T21:52:17.388Z,41.28
2022-12-16T21:57:38.466Z,73.07
2022-12-16T22:02:59.351Z,48.50
2022-12-16T22:08:25.805Z,40.05
2022-12-16T22:13:49.527Z,41.35
2022-12-16T22:19:14.101Z,43.95
2022-12-16T22:24:34.801Z,74.90
2022-12-16T22:29:55.381Z,70.82
2022-12-16T22:35:16.861Z,38.60
2022-12-16T22:40:37.710Z,40.10
2022-12-16T22:46:18.387Z,44.40
2022-12-16T22:51:39.146Z,52.70
2022-12-16T22:56:59.984Z,51.45
2022-12-16T23:02:20.672Z,42.63
2022-12-16T23:07:41.578Z,54.20
2022-12-16T23:13:02.467Z,53.65
2022-12-16T23:18:23.406Z,52.85
2022-12-16T23:23:44.314Z,57.83
2022-12-16T23:29:09.585Z,61.47
2022-12-16T23:34:30.635Z,49.38
2022-12-16T23:39:51.438Z,46.60
2022-12-16T23:45:20.297Z,46.72
2022-12-16T23:50:41.151Z,49.63
2022-12-16T23:56:01.793Z,64.95
